Time;durP1;ratioP1;P1;durP2;ratioP2;P2;SDS_P1;SDS_P2;PMS_P1;PMS_P2;Temp;Humidity;BMP_temperature;BMP_pressure;BME280_temperature;BME280_humidity;BME280_pressure;Samples;Min_cycle;Max_cycle;Signal;HPM_P1;HPM_P2
2021/01/01 00:00:32;;;;;;;9.50;8.60;;;4.50;34.50;;;;;;5093854;28;20241;-73
2021/01/01 00:03:00;;;;;;;6.90;6.13;;;4.50;33.30;;;;;;5094886;28;20200;-73
2021/01/01 00:05:27;;;;;;;7.95;7.25;;;4.50;33.70;;;;;;5101990;28;20193;-73
2021/01/01 00:07:53;;;;;;;9.65;7.20;;;4.40;33.80;;;;;;5105747;28;20177;-73
2021/01/01 00:10:18;;;;;;;8.17;7.30;;;4.30;34.20;;;;;;5107155;28;20174;-73
2021/01/01 00:12:44;;;;;;;6.43;5.90;;;4.20;34.70;;;;;;5106992;28;20243;-74
2021/01/01 00:15:10;;;;;;;7.27;4.97;;;4.10;35.30;;;;;;5107722;28;20181;-73
2021/01/01 00:17:36;;;;;;;6.45;5.95;;;4.10;34.80;;;;;;5105963;28;20166;-73
2021/01/01 00:20:03;;;;;;;5.23;4.70;;;4.00;34.90;;;;;;5107754;28;20193;-73
2021/01/01 00:22:28;;;;;;;8.20;5.28;;;3.90;35.10;;;;;;5107534;28;20207;-73
2021/01/01 00:24:54;;;;;;;7.77;4.93;;;3.90;35.20;;;;;;5108393;28;20176;-73
2021/01/01 00:27:19;;;;;;;5.73;5.23;;;3.80;35.60;;;;;;5107917;28;20162;-74
2021/01/01 00:29:45;;;;;;;5.67;5.17;;;3.70;36.00;;;;;;5105811;28;20216;-74
2021/01/01 00:32:10;;;;;;;7.03;4.40;;;3.70;36.40;;;;;;5110261;28;20193;-74
2021/01/01 00:34:36;;;;;;;6.23;5.53;;;3.60;36.80;;;;;;5112942;28;20177;-73
2021/01/01 00:37:02;;;;;;;6.50;5.83;;;3.60;36.90;;;;;;5110031;28;20218;-74
2021/01/01 00:39:28;;;;;;;4.95;4.53;;;3.70;37.00;;;;;;5093023;28;20197;-72
2021/01/01 00:41:54;;;;;;;6.80;5.50;;;3.70;37.00;;;;;;5093133;28;20199;-74
2021/01/01 00:44:19;;;;;;;5.93;4.80;;;3.80;36.80;;;;;;5092701;28;20169;-73
2021/01/01 00:46:45;;;;;;;5.80;5.17;;;3.80;36.90;;;;;;5092405;28;20176;-73
2021/01/01 00:49:10;;;;;;;6.10;4.90;;;3.80;36.30;;;;;;5092709;28;20196;-73
2021/01/01 00:51:36;;;;;;;4.63;4.23;;;3.90;36.20;;;;;;5092579;28;20196;-73
2021/01/01 00:54:03;;;;;;;5.10;4.60;;;3.90;35.50;;;;;;5090956;28;20179;-73
2021/01/01 00:56:29;;;;;;;5.05;4.30;;;4.00;35.30;;;;;;5092263;28;20196;-73
2021/01/01 00:58:56;;;;;;;10.00;4.63;;;4.00;35.00;;;;;;5091831;28;20558;-73
2021/01/01 01:01:26;;;;;;;4.57;3.92;;;3.90;35.10;;;;;;5092548;28;20696;-73
2021/01/01 01:03:54;;;;;;;5.15;3.90;;;4.00;34.90;;;;;;5092532;28;20343;-73
2021/01/01 01:06:21;;;;;;;4.97;4.50;;;4.00;35.80;;;;;;5090833;28;20177;-73
2021/01/01 01:08:46;;;;;;;3.90;3.60;;;4.00;35.70;;;;;;5091671;28;20169;-73
2021/01/01 01:11:12;;;;;;;4.37;3.97;;;4.00;34.80;;;;;;5091607;28;20217;-73
2021/01/01 01:13:38;;;;;;;10.57;4.85;;;4.00;34.80;;;;;;5092193;28;20219;-73
2021/01/01 01:16:04;;;;;;;5.33;4.87;;;4.00;34.90;;;;;;5091732;28;20205;-74
2021/01/01 01:18:30;;;;;;;16.80;5.13;;;4.00;34.80;;;;;;5090424;28;20587;-74
2021/01/01 01:20:56;;;;;;;5.20;4.70;;;4.00;34.60;;;;;;5091384;28;20540;-73
2021/01/01 01:23:22;;;;;;;5.15;4.63;;;3.90;34.60;;;;;;5091485;28;20196;-74
2021/01/01 01:25:48;;;;;;;4.13;3.77;;;3.90;34.80;;;;;;5090267;28;20181;-74
2021/01/01 01:28:14;;;;;;;5.43;4.40;;;3.90;35.00;;;;;;5091551;28;20422;-73
2021/01/01 01:30:40;;;;;;;6.30;5.00;;;3.80;35.00;;;;;;5091177;28;20180;-73
2021/01/01 01:33:06;;;;;;;6.30;5.07;;;3.80;35.30;;;;;;5091502;28;20614;-72
2021/01/01 01:35:31;;;;;;;8.23;5.83;;;3.70;35.60;;;;;;5091373;28;20975;-72
2021/01/01 01:37:57;;;;;;;6.63;5.47;;;3.60;35.80;;;;;;5091440;28;20531;-73
2021/01/01 01:40:22;;;;;;;5.47;4.97;;;3.60;36.90;;;;;;5089813;28;20662;-74
2021/01/01 01:42:48;;;;;;;6.17;5.67;;;3.50;36.90;;;;;;5091324;28;20206;-73
2021/01/01 01:45:14;;;;;;;8.97;5.97;;;3.40;36.80;;;;;;5091373;28;20166;-72
2021/01/01 01:47:41;;;;;;;7.73;5.60;;;3.40;36.80;;;;;;5091338;28;20174;-74
2021/01/01 01:50:08;;;;;;;6.18;5.65;;;3.30;36.70;;;;;;5090968;28;20443;-73
2021/01/01 01:52:35;;;;;;;7.90;7.10;;;3.30;36.70;;;;;;5091331;28;20266;-73
2021/01/01 01:55:01;;;;;;;16.50;11.77;;;3.20;37.70;;;;;;5091193;28;20169;-73
2021/01/01 01:57:27;;;;;;;14.93;11.70;;;3.10;38.80;;;;;;5091199;28;20177;-73
2021/01/01 01:59:56;;;;;;;13.48;11.05;;;3.10;39.70;;;;;;5091020;28;20253;-73
2021/01/01 02:02:23;;;;;;;15.30;10.80;;;3.10;40.20;;;;;;5089562;28;20265;-74
2021/01/01 02:04:48;;;;;;;10.43;7.05;;;3.20;40.30;;;;;;5091395;28;20173;-73
2021/01/01 02:07:14;;;;;;;7.50;6.30;;;3.20;40.00;;;;;;5091138;28;20184;-73
2021/01/01 02:09:40;;;;;;;8.70;7.33;;;3.30;39.50;;;;;;5090741;28;20521;-73
2021/01/01 02:12:07;;;;;;;9.52;7.18;;;3.30;39.30;;;;;;5090957;28;20685;-73
2021/01/01 02:14:33;;;;;;;14.00;6.32;;;3.40;39.20;;;;;;5089578;28;20185;-71
2021/01/01 02:16:58;;;;;;;7.67;6.37;;;3.40;38.80;;;;;;5090972;28;20173;-71
2021/01/01 02:19:24;;;;;;;6.97;5.73;;;3.40;38.60;;;;;;5090656;28;20564;-72
2021/01/01 02:21:49;;;;;;;4.97;4.57;;;3.40;38.80;;;;;;5090623;28;20189;-72
2021/01/01 02:24:15;;;;;;;6.50;4.87;;;3.50;38.50;;;;;;5089525;28;20173;-72
2021/01/01 02:26:41;;;;;;;6.03;5.53;;;3.60;38.20;;;;;;5091072;28;20181;-72
2021/01/01 02:29:06;;;;;;;7.33;5.70;;;3.50;38.30;;;;;;5090583;28;20649;-72
2021/01/01 02:31:32;;;;;;;6.20;5.60;;;3.50;38.60;;;;;;5090868;28;20559;-72
2021/01/01 02:33:58;;;;;;;6.23;5.03;;;3.50;38.60;;;;;;5090764;28;20666;-72
2021/01/01 02:36:24;;;;;;;6.97;6.03;;;3.60;38.80;;;;;;5090837;28;20238;-75
2021/01/01 02:38:49;;;;;;;7.97;5.78;;;3.50;38.80;;;;;;5090375;28;20185;-73
2021/01/01 02:41:15;;;;;;;10.17;5.50;;;3.50;39.30;;;;;;5089345;28;20209;-73
2021/01/01 02:43:41;;;;;;;6.83;5.30;;;3.60;39.50;;;;;;5090621;28;20204;-74
2021/01/01 02:46:06;;;;;;;6.93;4.90;;;3.60;47.50;;;;;;5090550;28;20178;-73
2021/01/01 02:48:32;;;;;;;6.63;5.17;;;3.70;46.60;;;;;;5089692;28;20177;-76
2021/01/01 02:50:57;;;;;;;7.10;5.73;;;3.70;46.10;;;;;;5090231;28;20197;-72
2021/01/01 02:53:23;;;;;;;9.37;5.97;;;3.70;46.40;;;;;;5090526;28;20454;-72
2021/01/01 02:55:49;;;;;;;8.00;5.60;;;3.70;47.10;;;;;;5090543;28;20285;-73
2021/01/01 02:58:15;;;;;;;6.28;5.68;;;3.70;47.10;;;;;;5089474;28;20189;-72
2021/01/01 03:00:42;;;;;;;6.40;5.77;;;3.70;47.10;;;;;;5088937;28;20177;-73
2021/01/01 03:03:07;;;;;;;6.57;5.90;;;3.70;41.00;;;;;;5091509;28;20949;-72
2021/01/01 03:05:34;;;;;;;5.67;4.97;;;3.60;41.30;;;;;;5092913;28;20269;-72
2021/01/01 03:08:00;;;;;;;4.78;4.28;;;3.70;41.60;;;;;;5094277;28;20173;-72
2021/01/01 03:10:25;;;;;;;7.77;5.90;;;3.80;41.80;;;;;;5093746;28;20175;-73
2021/01/01 03:12:51;;;;;;;6.53;5.40;;;3.80;41.50;;;;;;5093075;28;20230;-73
2021/01/01 03:15:17;;;;;;;8.43;5.90;;;3.90;41.30;;;;;;5094132;28;20205;-74
2021/01/01 03:17:42;;;;;;;5.20;4.77;;;3.90;41.20;;;;;;5094116;28;20177;-74
2021/01/01 03:20:09;;;;;;;6.00;5.40;;;3.90;41.20;;;;;;5093775;28;20178;-73
2021/01/01 03:22:36;;;;;;;15.32;6.50;;;3.90;41.00;;;;;;5093884;28;20394;-74
2021/01/01 03:25:02;;;;;;;6.45;4.95;;;3.90;41.20;;;;;;5094143;28;20174;-74
2021/01/01 03:27:28;;;;;;;5.80;4.70;;;3.90;41.10;;;;;;5094215;28;20170;-73
2021/01/01 03:29:53;;;;;;;5.87;5.10;;;3.90;41.10;;;;;;5093884;28;20170;-73
2021/01/01 03:32:19;;;;;;;6.87;5.90;;;3.90;41.20;;;;;;5094004;28;20208;-73
2021/01/01 03:34:44;;;;;;;6.80;5.17;;;3.90;41.70;;;;;;5092381;28;20189;-74
2021/01/01 03:37:10;;;;;;;5.20;4.70;;;3.80;42.20;;;;;;5094054;28;20213;-72
2021/01/01 03:39:36;;;;;;;5.97;5.43;;;3.80;42.20;;;;;;5092600;28;20197;-74
2021/01/01 03:42:03;;;;;;;7.13;5.40;;;3.80;42.10;;;;;;5093531;28;20208;-73
2021/01/01 03:44:28;;;;;;;6.80;5.15;;;3.80;42.30;;;;;;5093927;28;20248;-73
2021/01/01 03:46:54;;;;;;;8.40;5.20;;;3.80;42.40;;;;;;5093557;28;20613;-73
2021/01/01 03:49:20;;;;;;;7.60;5.40;;;3.80;42.20;;;;;;5093250;28;20196;-73
2021/01/01 03:51:45;;;;;;;6.27;4.97;;;3.80;43.40;;;;;;5093951;28;20249;-73
2021/01/01 03:54:11;;;;;;;5.10;4.60;;;3.70;42.80;;;;;;5093351;28;20187;-73
2021/01/01 03:56:36;;;;;;;6.03;5.40;;;3.80;43.10;;;;;;5093337;28;20469;-72
2021/01/01 03:59:02;;;;;;;6.63;5.60;;;3.80;43.10;;;;;;5092982;28;20169;-72
2021/01/01 04:01:28;;;;;;;5.75;5.07;;;3.90;43.20;;;;;;5093137;28;20189;-72
2021/01/01 04:03:54;;;;;;;8.20;6.00;;;3.90;43.00;;;;;;5091811;28;20271;-72
2021/01/01 04:06:19;;;;;;;11.40;5.00;;;3.90;42.60;;;;;;5093012;28;20170;-72
2021/01/01 04:08:45;;;;;;;5.97;5.47;;;3.80;42.90;;;;;;5092825;28;20179;-72
2021/01/01 04:11:10;;;;;;;5.87;5.30;;;3.80;42.90;;;;;;5091397;28;20214;-72
2021/01/01 04:13:36;;;;;;;5.57;5.00;;;3.80;43.00;;;;;;5092993;28;20176;-72
2021/01/01 04:16:02;;;;;;;7.30;6.10;;;3.80;43.10;;;;;;5090457;28;20226;-72
2021/01/01 04:18:28;;;;;;;7.57;6.85;;;3.90;43.10;;;;;;5093331;28;20180;-72
2021/01/01 04:20:53;;;;;;;6.87;6.17;;;3.90;42.90;;;;;;5092401;28;20664;-72
2021/01/01 04:23:19;;;;;;;5.67;4.97;;;3.90;42.80;;;;;;5092704;28;20301;-73
2021/01/01 04:25:47;;;;;;;7.73;6.40;;;3.90;42.90;;;;;;5092741;28;20177;-73
2021/01/01 04:28:13;;;;;;;12.57;11.45;;;4.00;42.80;;;;;;5092853;28;20611;-72
2021/01/01 04:30:38;;;;;;;9.90;9.00;;;4.00;42.30;;;;;;5092381;28;20174;-73
2021/01/01 04:33:04;;;;;;;11.33;9.87;;;3.90;42.80;;;;;;5092686;28;20659;-74
2021/01/01 04:35:29;;;;;;;9.67;8.87;;;3.90;42.60;;;;;;5092441;28;20181;-73
2021/01/01 04:37:55;;;;;;;12.00;10.70;;;3.90;42.90;;;;;;5091096;28;20242;-72
2021/01/01 04:40:20;;;;;;;14.97;10.67;;;3.80;43.20;;;;;;5090860;28;20180;-73
2021/01/01 04:42:46;;;;;;;12.83;10.47;;;3.80;43.20;;;;;;5092408;28;20199;-73
2021/01/01 04:45:12;;;;;;;12.50;11.30;;;3.80;43.30;;;;;;5092671;28;20225;-73
2021/01/01 04:47:40;;;;;;;12.35;11.20;;;3.80;43.20;;;;;;5091003;28;20230;-74
2021/01/01 04:50:07;;;;;;;12.30;11.00;;;3.80;43.30;;;;;;5092162;28;20182;-73
2021/01/01 04:52:33;;;;;;;12.80;11.30;;;3.90;48.70;;;;;;5091027;28;20201;-72
2021/01/01 04:54:59;;;;;;;12.48;10.85;;;3.70;44.10;;;;;;5092253;28;20653;-73
2021/01/01 04:57:25;;;;;;;13.50;12.30;;;3.70;43.50;;;;;;5092391;28;20185;-73
2021/01/01 04:59:51;;;;;;;15.93;12.30;;;3.70;43.50;;;;;;5091964;28;20180;-73
2021/01/01 05:02:17;;;;;;;13.47;11.97;;;3.70;44.00;;;;;;5092100;28;20455;-74
2021/01/01 05:04:47;;;;;;;15.60;11.90;;;;;;;;;;5092164;28;20174;-73
2021/01/01 05:07:19;;;;;;;13.27;11.10;;;3.70;43.70;;;;;;5092053;28;20411;-73
2021/01/01 05:09:46;;;;;;;13.65;12.23;;;3.60;44.70;;;;;;5091738;28;20223;-73
2021/01/01 05:12:12;;;;;;;14.50;12.80;;;3.70;44.60;;;;;;5093211;28;20274;-73
2021/01/01 05:14:39;;;;;;;17.27;12.55;;;3.70;44.70;;;;;;5093220;28;20661;-75
2021/01/01 05:17:05;;;;;;;12.82;11.40;;;3.70;44.90;;;;;;5092903;28;20534;-75
2021/01/01 05:19:49;;;;;;;14.43;13.02;;;3.70;44.20;;;;;;5092597;28;20654;-72
2021/01/01 05:22:14;;;;;;;12.85;11.57;;;3.70;44.90;;;;;;5092285;28;20217;-75
2021/01/01 05:24:47;;;;;;;12.00;10.60;;;3.70;44.40;;;;;;5092610;28;20169;-74
2021/01/01 05:27:18;;;;;;;13.60;12.20;;;3.60;44.70;;;;;;5092512;28;20674;-74
2021/01/01 05:29:54;;;;;;;14.77;12.70;;;3.60;44.90;;;;;;5092288;28;20173;-74
2021/01/01 05:32:28;;;;;;;13.85;12.32;;;3.60;45.20;;;;;;5092341;28;20576;-74
2021/01/01 05:34:55;;;;;;;16.77;13.32;;;3.60;45.40;;;;;;5092413;28;20177;-74
2021/01/01 05:37:31;;;;;;;12.32;11.13;;;3.50;45.80;;;;;;5092517;28;20615;-74
2021/01/01 05:40:08;;;;;;;12.30;11.10;;;3.60;45.60;;;;;;5092551;28;20181;-75
2021/01/01 05:42:37;;;;;;;17.95;13.07;;;3.60;46.00;;;;;;5091949;28;20238;-74
2021/01/01 05:45:13;;;;;;;12.25;11.15;;;3.70;45.70;;;;;;5092199;28;20172;-74
2021/01/01 05:47:39;;;;;;;13.43;12.05;;;3.70;45.50;;;;;;5091899;28;20165;-75
2021/01/01 05:50:05;;;;;;;13.40;12.03;;;3.70;45.40;;;;;;5091640;28;20253;-74
2021/01/01 05:52:30;;;;;;;14.90;11.60;;;3.60;45.70;;;;;;5092193;28;20292;-75
2021/01/01 05:54:59;;;;;;;11.70;10.50;;;3.60;45.70;;;;;;5091698;28;20203;-74
2021/01/01 05:57:34;;;;;;;13.52;12.18;;;3.70;45.80;;;;;;5091813;28;20173;-74
2021/01/01 06:00:06;;;;;;;24.00;11.75;;;3.70;45.30;;;;;;5091363;28;20242;-75
2021/01/01 06:02:43;;;;;;;13.82;11.88;;;3.80;45.30;;;;;;5091450;28;20286;-74
2021/01/01 06:05:13;;;;;;;13.73;12.32;;;3.80;45.90;;;;;;5091727;28;20548;-74
2021/01/01 06:07:40;;;;;;;13.98;10.95;;;3.80;45.20;;;;;;5091595;28;20305;-74
2021/01/01 06:10:08;;;;;;;15.02;11.88;;;3.80;45.00;;;;;;5091109;28;20200;-74
2021/01/01 06:12:36;;;;;;;11.95;10.75;;;3.80;44.70;;;;;;5091175;28;20217;-73
2021/01/01 06:15:03;;;;;;;11.07;9.95;;;3.70;44.90;;;;;;5091159;28;20177;-74
2021/01/01 06:17:34;;;;;;;14.35;10.70;;;3.70;45.00;;;;;;5091165;28;20188;-75
2021/01/01 06:19:59;;;;;;;12.00;10.75;;;3.80;44.70;;;;;;5091117;28;20205;-74
2021/01/01 06:22:32;;;;;;;13.27;10.67;;;3.70;44.60;;;;;;5091292;28;20639;-74
2021/01/01 06:24:59;;;;;;;12.65;10.13;;;3.70;44.60;;;;;;5091272;28;20169;-75
2021/01/01 06:27:30;;;;;;;11.35;10.20;;;3.70;44.40;;;;;;5091641;28;20185;-74
2021/01/01 06:30:03;;;;;;;11.43;10.25;;;3.70;44.30;;;;;;5091457;28;20275;-74
2021/01/01 06:32:32;;;;;;;11.05;9.90;;;3.70;44.60;;;;;;5092111;28;20199;-74
2021/01/01 06:35:13;;;;;;;13.18;11.75;;;3.70;44.70;;;;;;5092040;28;20183;-75
2021/01/01 06:37:44;;;;;;;12.00;10.90;;;3.70;44.70;;;;;;5091650;28;20178;-74
2021/01/01 06:40:22;;;;;;;13.25;11.70;;;3.80;44.70;;;;;;5095331;28;20583;-75
2021/01/01 06:42:57;;;;;;;16.40;13.18;;;3.80;44.50;;;;;;5095131;28;20561;-74
2021/01/01 06:45:44;;;;;;;13.27;12.05;;;3.80;44.70;;;;;;5096474;28;20543;-73
2021/01/01 06:48:18;;;;;;;14.52;11.82;;;3.80;45.00;;;;;;5096183;28;20180;-73
2021/01/01 06:50:44;;;;;;;17.02;13.60;;;3.80;44.50;;;;;;5079475;28;20286;-74
2021/01/01 06:53:12;;;;;;;13.30;12.10;;;3.80;44.90;;;;;;5075347;28;20220;-74
2021/01/01 06:55:38;;;;;;;16.83;13.57;;;3.70;45.00;;;;;;5084409;28;20563;-73
2021/01/01 06:58:05;;;;;;;18.90;14.02;;;3.70;45.40;;;;;;5095005;28;20178;-73
2021/01/01 07:00:45;;;;;;;15.05;13.68;;;3.70;45.50;;;;;;5095574;28;20178;-74
2021/01/01 07:03:26;;;;;;;15.60;13.80;;;3.60;45.70;;;;;;5088808;28;20282;-72
2021/01/01 07:06:12;;;;;;;16.77;14.98;;;3.60;46.10;;;;;;5074701;28;20175;-74
2021/01/01 07:08:44;;;;;;;18.58;14.50;;;3.60;46.70;;;;;;5070654;28;20189;-74
2021/01/01 07:11:12;;;;;;;17.23;14.52;;;3.60;47.00;;;;;;5094069;28;20216;-73
2021/01/01 07:13:52;;;;;;;18.67;14.98;;;3.60;47.00;;;;;;5093246;28;20317;-74
2021/01/01 07:16:25;;;;;;;13.55;12.35;;;3.60;47.00;;;;;;5094817;28;20173;-74
2021/01/01 07:18:53;;;;;;;16.42;15.02;;;3.60;47.00;;;;;;5094172;28;20184;-74
2021/01/01 07:21:19;;;;;;;14.85;13.52;;;3.70;46.90;;;;;;5093263;28;20392;-73
2021/01/01 07:23:46;;;;;;;24.38;15.25;;;3.70;46.40;;;;;;5094390;28;20578;-74
2021/01/01 07:26:13;;;;;;;19.50;16.17;;;3.70;46.30;;;;;;5094791;28;20572;-74
2021/01/01 07:28:40;;;;;;;17.05;15.35;;;3.60;46.60;;;;;;5102383;28;20177;-73
2021/01/01 07:31:07;;;;;;;16.05;14.50;;;3.60;47.00;;;;;;5108094;28;20613;-74
2021/01/01 07:33:34;;;;;;;20.40;18.40;;;3.60;47.00;;;;;;5094457;28;20177;-74
2021/01/01 07:36:04;;;;;;;17.23;15.52;;;3.60;46.40;;;;;;5094361;28;20176;-73
2021/01/01 07:38:32;;;;;;;16.98;15.48;;;3.60;47.00;;;;;;5094501;28;20177;-73
2021/01/01 07:40:58;;;;;;;22.73;19.13;;;3.50;46.90;;;;;;5092778;28;20212;-72
2021/01/01 07:43:24;;;;;;;17.83;16.02;;;3.50;46.90;;;;;;5094724;28;20205;-73
2021/01/01 07:45:53;;;;;;;19.70;16.38;;;3.40;46.80;;;;;;5096133;28;20177;-71
2021/01/01 07:48:19;;;;;;;22.50;16.77;;;3.40;46.50;;;;;;5114986;28;20180;-73
2021/01/01 07:50:44;;;;;;;19.13;17.20;;;3.50;47.00;;;;;;5111504;28;20193;-73
2021/01/01 07:53:11;;;;;;;17.47;15.37;;;3.40;46.80;;;;;;5112703;28;20426;-70
2021/01/01 07:55:38;;;;;;;20.75;18.85;;;3.40;47.00;;;;;;5119739;28;20395;-71
2021/01/01 07:58:11;;;;;;;23.80;18.67;;;3.50;46.90;;;;;;5119711;28;20245;-73
2021/01/01 08:00:42;;;;;;;18.13;16.23;;;3.50;47.00;;;;;;5106753;28;20197;-73
2021/01/01 08:03:09;;;;;;;18.90;17.00;;;3.50;46.90;;;;;;5102689;28;20256;-71
2021/01/01 08:05:36;;;;;;;20.40;17.50;;;3.50;46.90;;;;;;5097636;28;20192;-71
2021/01/01 08:08:16;;;;;;;19.75;17.10;;;3.50;46.90;;;;;;5102962;28;20192;-73
2021/01/01 08:10:44;;;;;;;21.08;19.00;;;3.40;46.80;;;;;;5100329;28;20189;-72
2021/01/01 08:13:19;;;;;;;20.10;17.95;;;3.30;47.10;;;;;;5098938;28;20197;-72
2021/01/01 08:15:46;;;;;;;24.35;20.17;;;3.30;48.10;;;;;;5100895;28;20184;-71
2021/01/01 08:18:15;;;;;;;24.10;20.00;;;3.30;48.10;;;;;;5102550;28;20250;-72
2021/01/01 08:20:46;;;;;;;25.05;19.60;;;3.30;47.90;;;;;;5103681;28;20185;-72
2021/01/01 08:23:16;;;;;;;19.60;17.58;;;3.30;47.70;;;;;;5084131;28;20205;-72
2021/01/01 08:25:43;;;;;;;19.23;17.45;;;3.40;47.60;;;;;;5073671;28;20184;-72
2021/01/01 08:28:10;;;;;;;24.23;17.92;;;3.40;48.10;;;;;;5082413;28;20173;-73
2021/01/01 08:30:38;;;;;;;21.20;19.08;;;3.40;47.60;;;;;;5100947;28;20164;-72
2021/01/01 08:33:06;;;;;;;21.27;19.08;;;3.50;47.70;;;;;;5115058;28;20181;-73
2021/01/01 08:35:32;;;;;;;19.33;17.42;;;3.50;52.20;;;;;;5105715;28;20588;-72
2021/01/01 08:37:57;;;;;;;20.55;18.40;;;3.50;63.80;;;;;;5075097;28;20238;-73
2021/01/01 08:40:23;;;;;;;18.73;16.87;;;3.50;62.90;;;;;;5073960;28;20260;-70
2021/01/01 08:42:55;;;;;;;22.63;19.90;;;3.60;47.00;;;;;;5077130;28;20265;-73
2021/01/01 08:45:29;;;;;;;22.95;20.55;;;3.60;47.00;;;;;;5113602;28;20180;-73
2021/01/01 08:47:54;;;;;;;20.50;18.40;;;3.60;47.00;;;;;;5114096;28;20540;-73
2021/01/01 08:50:28;;;;;;;25.53;21.30;;;3.60;47.00;;;;;;5114846;28;20169;-73
2021/01/01 08:53:02;;;;;;;22.92;20.73;;;3.60;47.00;;;;;;5114547;28;20645;-73
2021/01/01 08:55:28;;;;;;;23.98;21.05;;;3.60;47.00;;;;;;5115326;28;20176;-72
2021/01/01 08:58:13;;;;;;;20.92;18.75;;;3.60;47.00;;;;;;5098585;28;20235;-73
2021/01/01 09:00:40;;;;;;;21.23;18.88;;;3.60;46.10;;;;;;5091623;28;20181;-71
2021/01/01 09:03:07;;;;;;;22.25;17.83;;;3.60;46.00;;;;;;5092612;28;20200;-73
2021/01/01 09:05:34;;;;;;;19.58;16.60;;;3.60;45.90;;;;;;5092402;28;20178;-72
2021/01/01 09:08:14;;;;;;;17.88;16.15;;;3.50;46.10;;;;;;5092362;28;20174;-72
2021/01/01 09:10:43;;;;;;;20.70;17.77;;;3.40;46.20;;;;;;5091835;28;20203;-72
2021/01/01 09:13:20;;;;;;;22.75;18.13;;;3.40;46.40;;;;;;5111083;28;20184;-72
2021/01/01 09:15:47;;;;;;;22.40;17.75;;;3.40;46.80;;;;;;5112700;28;20646;-73
2021/01/01 09:18:14;;;;;;;19.10;17.27;;;3.40;46.30;;;;;;5111847;28;20180;-72
2021/01/01 09:20:42;;;;;;;21.55;19.35;;;3.40;46.30;;;;;;5102367;28;20178;-72
2021/01/01 09:23:09;;;;;;;23.75;17.70;;;3.40;46.00;;;;;;5092230;28;20193;-71
2021/01/01 09:25:35;;;;;;;24.55;17.63;;;3.40;46.80;;;;;;5092043;28;20223;-70
2021/01/01 09:28:02;;;;;;;16.73;15.00;;;3.50;46.70;;;;;;5092030;28;20169;-72
2021/01/01 09:30:30;;;;;;;19.02;16.95;;;3.50;46.60;;;;;;5091732;28;20305;-73
2021/01/01 09:32:58;;;;;;;17.30;15.48;;;3.60;46.30;;;;;;5091679;28;20184;-72
2021/01/01 09:35:24;;;;;;;17.50;15.60;;;3.70;45.40;;;;;;5110713;28;20181;-72
2021/01/01 09:37:51;;;;;;;17.75;14.25;;;3.80;44.50;;;;;;5112335;28;20168;-72
2021/01/01 09:40:19;;;;;;;16.30;14.00;;;3.80;44.50;;;;;;5111916;28;20247;-72
2021/01/01 09:42:45;;;;;;;16.45;14.70;;;3.90;44.00;;;;;;5111800;28;20212;-71
2021/01/01 09:45:12;;;;;;;17.67;13.53;;;3.90;43.90;;;;;;5112662;28;20252;-71
2021/01/01 09:47:38;;;;;;;18.33;14.50;;;4.00;44.60;;;;;;5112098;28;20468;-72
2021/01/01 09:50:05;;;;;;;21.20;13.37;;;4.10;44.00;;;;;;5109913;28;20185;-73
2021/01/01 09:52:31;;;;;;;12.88;10.85;;;4.20;43.20;;;;;;5112270;28;20728;-72
2021/01/01 09:54:57;;;;;;;10.40;7.80;;;4.30;41.70;;;;;;5112166;28;20184;-70
2021/01/01 09:57:22;;;;;;;12.03;7.60;;;4.30;40.40;;;;;;5112586;28;20200;-73
2021/01/01 09:59:48;;;;;;;8.77;5.90;;;4.40;37.60;;;;;;5112129;28;20267;-73
2021/01/01 10:02:13;;;;;;;6.53;5.93;;;4.30;36.00;;;;;;5112086;28;20207;-73
2021/01/01 10:04:39;;;;;;;6.30;5.07;;;4.30;37.50;;;;;;5104336;28;20179;-72
2021/01/01 10:07:04;;;;;;;7.77;5.93;;;4.40;37.30;;;;;;5090617;28;20169;-73
2021/01/01 10:09:30;;;;;;;11.03;6.03;;;4.40;36.80;;;;;;5091013;28;20533;-73
2021/01/01 10:11:57;;;;;;;4.50;4.10;;;4.40;36.80;;;;;;5091381;28;20226;-72
2021/01/01 10:14:23;;;;;;;9.50;6.00;;;4.50;35.90;;;;;;5092641;28;20192;-71
2021/01/01 10:16:49;;;;;;;7.13;5.80;;;4.60;34.60;;;;;;5091612;28;20573;-73
2021/01/01 10:19:15;;;;;;;7.37;6.77;;;4.70;34.60;;;;;;5091882;28;20419;-73
2021/01/01 10:21:41;;;;;;;8.23;6.80;;;4.70;35.80;;;;;;5091913;28;20593;-72
2021/01/01 10:24:06;;;;;;;7.40;6.20;;;4.70;35.40;;;;;;5091575;28;20208;-72
2021/01/01 10:26:32;;;;;;;11.83;8.90;;;4.70;35.70;;;;;;5100727;28;20175;-72
2021/01/01 10:28:58;;;;;;;10.63;7.40;;;4.70;36.20;;;;;;5111399;28;20205;-72
2021/01/01 10:31:23;;;;;;;10.87;9.00;;;4.70;35.90;;;;;;5110470;28;20255;-71
2021/01/01 10:33:49;;;;;;;13.63;6.80;;;4.50;36.40;;;;;;5111836;28;20565;-72
2021/01/01 10:36:15;;;;;;;7.50;6.80;;;4.50;36.60;;;;;;5111847;28;20420;-72
2021/01/01 10:38:41;;;;;;;5.33;4.83;;;4.50;36.50;;;;;;5111519;28;20174;-72
2021/01/01 10:41:11;;;;;;;9.07;7.63;;;4.50;34.80;;;;;;5091621;28;20202;-72
2021/01/01 10:43:37;;;;;;;8.73;5.68;;;4.50;34.80;;;;;;5091033;28;20212;-73
2021/01/01 10:46:02;;;;;;;7.77;6.30;;;4.50;34.70;;;;;;5090926;28;20257;-73
2021/01/01 10:48:28;;;;;;;8.23;5.90;;;4.50;34.90;;;;;;5090782;28;20252;-72
2021/01/01 10:50:53;;;;;;;7.07;6.30;;;4.50;35.20;;;;;;5090877;28;20191;-73
2021/01/01 10:53:19;;;;;;;5.70;5.00;;;4.60;35.30;;;;;;5098711;28;20190;-72
2021/01/01 10:55:45;;;;;;;6.10;5.50;;;4.70;34.40;;;;;;5111262;28;20182;-71
2021/01/01 10:58:11;;;;;;;7.60;6.70;;;4.70;33.30;;;;;;5111497;28;20541;-71
2021/01/01 11:00:36;;;;;;;5.57;5.07;;;4.60;34.10;;;;;;5111148;28;20315;-72
2021/01/01 11:03:02;;;;;;;5.80;5.20;;;4.70;32.70;;;;;;5110132;28;20210;-71
2021/01/01 11:05:27;;;;;;;6.30;5.10;;;4.60;33.00;;;;;;5112543;28;20196;-73
2021/01/01 11:07:53;;;;;;;6.50;5.90;;;4.60;33.40;;;;;;5094233;28;20178;-74
2021/01/01 11:10:19;;;;;;;6.13;5.20;;;4.70;32.70;;;;;;5091086;28;20264;-74
2021/01/01 11:12:45;;;;;;;6.10;5.33;;;4.80;32.80;;;;;;5101123;22;20234;-72
2021/01/01 12:21:39;;;;;;;6.68;6.05;;;5.00;29.00;;;;;;5071025;28;20417;-73
2021/01/01 12:26:43;;;;;;;5.90;4.90;;;5.20;29.10;;;;;;5072485;28;20164;-74
2021/01/01 12:29:10;;;;;;;7.10;6.37;;;5.10;29.60;;;;;;5070791;28;20421;-74
2021/01/01 12:31:35;;;;;;;6.93;6.33;;;5.10;29.70;;;;;;5058461;28;20571;-74
2021/01/01 12:34:02;;;;;;;6.17;5.57;;;5.10;30.00;;;;;;5050976;28;20416;-74
2021/01/01 12:36:28;;;;;;;7.70;6.90;;;5.10;30.40;;;;;;5051158;28;20344;-74
2021/01/01 12:38:53;;;;;;;7.40;6.40;;;5.30;30.00;;;;;;5051975;28;20417;-74
2021/01/01 12:41:19;;;;;;;7.63;5.80;;;5.30;28.60;;;;;;5052295;28;20338;-74
2021/01/01 12:43:44;;;;;;;6.70;6.10;;;5.30;28.20;;;;;;5051911;28;20209;-74
2021/01/01 12:46:11;;;;;;;8.13;5.93;;;5.30;28.10;;;;;;5052278;28;20208;-74
2021/01/01 12:48:37;;;;;;;7.15;5.88;;;5.30;28.20;;;;;;5051836;28;20178;-74
2021/01/01 12:51:03;;;;;;;6.80;6.13;;;5.20;28.50;;;;;;5052038;28;20323;-74
2021/01/01 12:53:28;;;;;;;7.10;6.47;;;5.20;28.50;;;;;;5033941;28;20186;-74
2021/01/01 12:55:54;;;;;;;6.70;6.10;;;5.20;28.50;;;;;;5050560;28;20189;-74
2021/01/01 12:58:19;;;;;;;7.53;6.47;;;5.30;28.60;;;;;;5051729;28;20185;-74
2021/01/01 13:00:45;;;;;;;6.40;5.90;;;5.40;29.00;;;;;;5033698;28;20178;-74
2021/01/01 13:03:10;;;;;;;8.13;7.30;;;5.30;28.50;;;;;;5050242;28;20201;-74
2021/01/01 13:05:36;;;;;;;7.70;6.53;;;5.20;28.50;;;;;;5059626;28;20181;-74
2021/01/01 13:08:01;;;;;;;6.67;6.03;;;5.10;29.10;;;;;;5071241;28;20543;-74
2021/01/01 13:10:27;;;;;;;7.93;6.37;;;5.20;28.50;;;;;;5067990;28;20207;-74
2021/01/01 13:12:52;;;;;;;7.17;6.27;;;5.10;28.40;;;;;;5051370;28;20232;-74
2021/01/01 13:15:18;;;;;;;6.50;5.93;;;5.20;28.50;;;;;;5051826;28;20172;-74
2021/01/01 13:17:44;;;;;;;6.83;6.23;;;5.30;27.90;;;;;;5051557;28;20272;-74
2021/01/01 13:20:10;;;;;;;5.80;5.30;;;5.20;28.50;;;;;;5051321;28;20186;-74
2021/01/01 13:22:35;;;;;;;6.82;5.68;;;5.10;28.40;;;;;;5033527;28;20237;-74
2021/01/01 13:25:01;;;;;;;5.70;5.20;;;5.20;28.50;;;;;;5062501;28;20204;-74
2021/01/01 13:27:27;;;;;;;7.43;6.83;;;5.20;28.50;;;;;;5051737;28;20177;-74
2021/01/01 13:29:53;;;;;;;7.17;5.77;;;5.10;28.40;;;;;;5051305;28;20259;-74
2021/01/01 13:32:19;;;;;;;6.78;6.18;;;5.00;28.40;;;;;;5051207;28;20222;-74
2021/01/01 13:34:45;;;;;;;6.37;5.80;;;4.90;28.30;;;;;;5051343;28;20227;-74
2021/01/01 13:37:11;;;;;;;6.30;5.70;;;4.90;28.70;;;;;;5051511;28;20735;-74
2021/01/01 13:39:36;;;;;;;4.93;4.53;;;4.90;28.80;;;;;;5051000;28;20178;-74
2021/01/01 13:42:02;;;;;;;6.40;5.60;;;4.80;28.60;;;;;;5051006;28;20274;-74
2021/01/01 13:44:27;;;;;;;8.30;6.20;;;4.70;28.50;;;;;;5032882;28;20206;-74
2021/01/01 13:46:53;;;;;;;6.10;4.47;;;4.70;29.10;;;;;;5042694;28;20202;-74
2021/01/01 13:49:18;;;;;;;5.57;5.03;;;4.60;28.40;;;;;;5052772;28;20184;-74
2021/01/01 13:51:44;;;;;;;8.20;5.90;;;4.60;29.80;;;;;;5070697;28;20230;-74
2021/01/01 13:54:09;;;;;;;6.00;5.40;;;4.60;29.10;;;;;;5069733;28;20181;-74
2021/01/01 13:56:35;;;;;;;5.57;5.10;;;4.50;29.70;;;;;;5050844;28;20312;-74